createdAt,value
2017-08-10T10:13:47.423Z,101335
2017-08-10T10:16:15.553Z,101347
2017-08-10T10:18:47.068Z,101343
2017-08-10T10:21:15.178Z,101344
2017-08-10T10:23:45.176Z,101335
2017-08-10T10:26:13.275Z,101346
2017-08-10T10:28:45.092Z,101340
2017-08-10T10:31:13.361Z,101345
2017-08-10T10:33:46.075Z,101347
2017-08-10T10:36:14.198Z,101347
2017-08-10T10:38:42.285Z,101350
2017-08-10T10:41:10.384Z,101349
2017-08-10T10:43:45.775Z,101346
2017-08-10T10:46:13.891Z,101351
2017-08-10T10:48:45.229Z,101352
2017-08-10T10:54:14.333Z,101367
2017-08-10T10:56:45.749Z,101370
2017-08-10T10:59:13.965Z,101373
2017-08-10T11:01:42.058Z,101386
2017-08-10T11:04:10.160Z,101385
2017-08-10T11:06:38.619Z,101380
2017-08-10T11:09:06.776Z,101382
2017-08-10T11:11:37.560Z,101380
2017-08-10T11:14:16.540Z,101377
2017-08-10T11:16:44.657Z,101370
2017-08-10T11:19:22.849Z,101371
2017-08-10T11:21:54.441Z,101366
2017-08-10T11:24:24.463Z,101376
2017-08-10T11:26:56.108Z,101376
2017-08-10T11:29:26.125Z,101371
2017-08-10T11:31:54.816Z,101360
2017-08-10T11:34:22.913Z,101367
2017-08-10T11:36:56.703Z,101371
2017-08-10T11:39:27.749Z,101371
2017-08-10T11:41:59.556Z,101367
2017-08-10T11:44:27.748Z,101375
2017-08-10T11:46:58.883Z,101373
2017-08-10T11:49:33.375Z,101370
2017-08-10T11:52:18.649Z,101375
2017-08-10T11:54:46.728Z,101372
2017-08-10T11:57:14.897Z,101374
2017-08-10T11:59:44.680Z,101372
2017-08-10T12:02:14.732Z,101369
2017-08-10T12:04:55.282Z,101369
2017-08-10T12:07:27.423Z,101370
2017-08-10T12:09:55.545Z,101351
2017-08-10T12:12:34.580Z,101348
2017-08-10T12:15:03.328Z,101360
2017-08-10T12:17:35.828Z,101373
2017-08-10T12:20:16.896Z,101390
2017-08-10T12:22:45.792Z,101376
2017-08-10T12:25:15.569Z,101368
2017-08-10T12:27:43.682Z,101352
2017-08-10T12:30:11.812Z,101344
2017-08-10T12:32:39.910Z,101358
2017-08-10T12:35:11.269Z,101355
2017-08-10T12:37:39.367Z,101359
2017-08-10T12:40:11.790Z,101363
2017-08-10T12:42:39.891Z,101372
2017-08-10T12:45:11.036Z,101379
2017-08-10T12:47:47.508Z,101367
2017-08-10T12:50:26.009Z,101368
2017-08-10T12:52:56.216Z,101368
2017-08-10T12:55:34.551Z,101371
2017-08-10T12:58:06.466Z,101375
2017-08-10T13:00:40.702Z,101368
2017-08-10T13:03:09.834Z,101359
2017-08-10T13:05:39.212Z,101357
2017-08-10T13:08:11.077Z,101357
2017-08-10T13:10:39.644Z,101352
2017-08-10T13:13:08.720Z,101346
2017-08-10T13:15:37.322Z,101348
2017-08-10T13:18:05.568Z,101362
2017-08-10T13:20:33.691Z,101368
2017-08-10T13:23:04.696Z,101368
2017-08-10T13:25:38.774Z,101359
2017-08-10T13:28:06.909Z,101359
2017-08-10T13:30:35.030Z,101355
2017-08-10T13:33:03.547Z,101346
2017-08-10T13:35:35.926Z,101350
2017-08-10T13:38:04.020Z,101348
2017-08-10T13:40:33.984Z,101341
2017-08-10T13:43:02.098Z,101342
2017-08-10T13:45:34.041Z,101324
2017-08-10T13:48:02.168Z,101337
2017-08-10T13:50:32.196Z,101333
2017-08-10T13:53:00.291Z,101342
2017-08-10T13:55:29.100Z,101338
2017-08-10T13:57:57.228Z,101339
2017-08-10T14:00:28.898Z,101339
2017-08-10T14:02:56.985Z,101343
2017-08-10T14:05:25.172Z,101340
2017-08-10T14:07:57.904Z,101356
2017-08-10T14:10:48.530Z,101347
2017-08-10T14:13:27.843Z,101348
2017-08-10T14:16:02.028Z,101358
2017-08-10T14:18:40.195Z,101357
2017-08-10T14:21:14.724Z,101332
2017-08-10T14:23:43.772Z,101344
2017-08-10T14:26:11.868Z,101344
2017-08-10T14:28:44.048Z,101338
2017-08-10T14:31:16.611Z,101333
2017-08-10T14:33:54.820Z,101324
2017-08-10T14:36:23.827Z,101329
2017-08-10T14:38:51.921Z,101323
2017-08-10T14:41:20.992Z,101323
2017-08-10T14:43:49.103Z,101328
2017-08-10T14:46:18.141Z,101325
2017-08-10T14:48:49.204Z,101335
2017-08-10T14:51:23.405Z,101335
2017-08-10T14:53:53.632Z,101339
2017-08-10T14:56:27.938Z,101342
2017-08-10T14:58:56.032Z,101336
2017-08-10T15:01:34.496Z,101332
2017-08-10T15:04:06.590Z,101326
2017-08-10T15:07:00.852Z,101323
2017-08-10T15:09:34.940Z,101314
2017-08-10T15:12:03.073Z,101311
2017-08-10T15:14:31.194Z,101309
2017-08-10T15:16:59.764Z,101314
2017-08-10T15:19:27.904Z,101312
2017-08-10T15:21:56.011Z,101321
2017-08-10T15:24:24.111Z,101318
2017-08-10T15:26:52.975Z,101327
2017-08-10T15:29:21.093Z,101323
2017-08-10T15:31:49.183Z,101315
2017-08-10T15:40:34.690Z,101310
2017-08-10T15:43:24.903Z,101315
2017-08-10T15:45:54.044Z,101308
2017-08-10T15:48:22.153Z,101304
2017-08-10T15:50:57.254Z,101301
2017-08-10T15:53:35.051Z,101313
2017-08-10T15:56:05.148Z,101309
2017-08-10T15:58:43.367Z,101317
2017-08-10T16:01:12.582Z,101302
2017-08-10T16:03:46.921Z,101305
2017-08-10T16:06:20.018Z,101310
2017-08-10T16:08:54.493Z,101298
2017-08-10T16:11:33.121Z,101295
2017-08-10T16:14:03.115Z,101298
2017-08-10T16:16:33.197Z,101298
2017-08-10T16:19:02.267Z,101295
2017-08-10T16:21:35.044Z,101282
2017-08-10T16:24:03.723Z,101285
2017-08-10T16:26:31.956Z,101294
2017-08-10T16:29:03.043Z,101292
2017-08-10T16:31:37.317Z,101298
2017-08-10T16:34:05.569Z,101311
2017-08-10T16:36:33.799Z,101302
2017-08-10T16:39:02.106Z,101303
2017-08-10T16:41:34.184Z,101294
2017-08-10T16:44:02.339Z,101298
2017-08-10T16:46:30.493Z,101304
2017-08-10T16:48:58.680Z,101308
2017-08-10T16:51:27.818Z,101303
2017-08-10T16:53:56.035Z,101306
2017-08-10T16:56:25.267Z,101307
2017-08-10T16:58:54.349Z,101312
2017-08-10T17:01:28.027Z,101308
2017-08-10T17:03:56.208Z,101307
2017-08-10T17:06:29.059Z,101306
2017-08-10T17:09:00.625Z,101312
2017-08-10T17:11:38.716Z,101311
2017-08-10T17:14:08.898Z,101301
2017-08-10T17:16:45.369Z,101292
2017-08-10T17:19:17.338Z,101293
2017-08-10T17:21:56.604Z,101287
2017-08-10T17:24:24.741Z,101287
2017-08-10T17:26:53.642Z,101285
2017-08-10T17:29:27.991Z,101290
2017-08-10T17:32:02.789Z,101285
2017-08-10T17:34:31.852Z,101287
2017-08-10T17:37:01.878Z,101294
2017-08-10T17:39:36.616Z,101296
2017-08-10T17:42:12.185Z,101299
2017-08-10T17:44:44.153Z,101291
2017-08-10T17:47:15.838Z,101299
2017-08-10T17:49:44.213Z,101301
2017-08-10T17:52:36.317Z,101297
2017-08-10T17:55:29.894Z,101285
2017-08-10T17:58:03.096Z,101276
2017-08-10T18:00:37.061Z,101284
2017-08-10T18:03:16.844Z,101278
2017-08-10T18:05:54.693Z,101263
2017-08-10T18:08:29.328Z,101268
2017-08-10T18:11:02.257Z,101265
2017-08-10T18:13:32.311Z,101273
2017-08-10T18:16:00.689Z,101259
2017-08-10T18:18:30.622Z,101251
2017-08-10T18:21:02.042Z,101230
2017-08-10T18:23:39.369Z,101223
2017-08-10T18:26:24.380Z,101231
2017-08-10T18:28:57.795Z,101245
2017-08-10T18:31:25.958Z,101267
2017-08-10T18:33:55.540Z,101281
2017-08-10T18:36:34.369Z,101286
2017-08-10T18:39:02.576Z,101292
2017-08-10T18:41:30.743Z,101291
2017-08-10T18:45:36.777Z,101283
2017-08-10T18:48:05.014Z,101296
2017-08-10T18:50:33.242Z,101283
2017-08-10T18:53:08.446Z,101273
2017-08-10T18:55:43.442Z,101272
2017-08-10T18:58:14.974Z,101285
2017-08-10T19:00:46.557Z,101269
2017-08-10T19:03:14.720Z,101261
2017-08-10T19:09:49.578Z,101258
2017-08-10T19:12:18.521Z,101260
2017-08-10T19:14:51.325Z,101256
2017-08-10T19:17:22.253Z,101249
2017-08-10T19:19:51.970Z,101259
2017-08-10T19:22:24.984Z,101259
2017-08-10T19:24:55.138Z,101249
2017-08-10T19:27:26.536Z,101260
2017-08-10T19:29:55.763Z,101257
2017-08-10T19:32:32.282Z,101260
2017-08-10T19:35:01.162Z,101261
2017-08-10T19:37:29.385Z,101245
2017-08-10T19:39:58.711Z,101249
2017-08-10T19:42:41.412Z,101246
2017-08-10T19:45:13.235Z,101254
2017-08-10T19:47:46.424Z,101265
2017-08-10T19:50:19.837Z,101266
2017-08-10T19:53:00.198Z,101272
2017-08-10T19:55:51.014Z,101286
2017-08-10T19:58:21.870Z,101287
2017-08-10T20:00:58.610Z,101285
2017-08-10T20:03:33.941Z,101269
2017-08-10T20:06:07.946Z,101282
2017-08-10T20:08:41.370Z,101263
2017-08-10T20:11:15.585Z,101263
2017-08-10T20:13:52.476Z,101282
2017-08-10T20:16:27.567Z,101289
2017-08-10T20:18:57.010Z,101296
2017-08-10T20:21:27.703Z,101288
2017-08-10T20:23:58.214Z,101293
2017-08-10T20:26:37.557Z,101288
2017-08-10T20:29:06.730Z,101273
2017-08-10T20:31:38.776Z,101276
2017-08-10T20:34:12.683Z,101283
2017-08-10T20:36:41.515Z,101283
2017-08-10T20:39:09.863Z,101271
2017-08-10T20:41:38.111Z,101277
2017-08-10T21:01:03.915Z,101248
2017-08-10T21:03:38.625Z,101247
2017-08-10T21:13:53.514Z,101271
2017-08-10T21:19:44.517Z,101278
2017-08-10T21:30:01.109Z,101297
2017-08-10T21:32:33.775Z,101294
2017-08-10T21:35:02.175Z,101293
2017-08-10T21:37:37.264Z,101286
2017-08-10T21:40:05.474Z,101288
2017-08-10T21:42:46.193Z,101285
2017-08-10T21:45:16.672Z,101280
2017-08-10T21:47:44.945Z,101260
2017-08-10T21:50:26.589Z,101252
2017-08-10T21:53:00.747Z,101250
2017-08-10T21:55:33.549Z,101262
2017-08-10T21:58:02.805Z,101274
2017-08-10T22:00:31.089Z,101266
2017-08-10T22:03:02.248Z,101276
2017-08-10T22:05:34.014Z,101281
2017-08-10T22:08:04.253Z,101280
2017-08-10T22:10:36.568Z,101275
2017-08-10T22:13:13.273Z,101282
2017-08-10T22:15:44.652Z,101283
2017-08-10T22:18:19.092Z,101284
2017-08-10T22:21:04.400Z,101286
2017-08-10T22:23:32.514Z,101280
2017-08-10T22:26:07.009Z,101275
2017-08-10T22:28:35.164Z,101284
2017-08-10T22:31:03.287Z,101288
2017-08-10T22:33:34.348Z,101282
2017-08-10T22:36:12.584Z,101272
2017-08-10T22:38:41.439Z,101273
2017-08-10T22:41:09.584Z,101266
2017-08-10T22:43:40.843Z,101268
2017-08-10T22:46:15.173Z,101264
2017-08-10T22:48:44.233Z,101252
2017-08-10T22:51:18.322Z,101238
2017-08-10T22:53:46.437Z,101240
2017-08-10T22:56:14.528Z,101241
2017-08-10T22:58:42.657Z,101224
2017-08-10T23:01:21.035Z,101230
2017-08-10T23:03:52.976Z,101225
2017-08-10T23:06:21.119Z,101204
2017-08-10T23:08:49.211Z,101208
2017-08-10T23:11:17.316Z,101201
2017-08-10T23:13:49.236Z,101199
2017-08-10T23:16:17.344Z,101203
2017-08-10T23:18:45.431Z,101204
2017-08-10T23:21:13.550Z,101204
2017-08-10T23:23:44.817Z,101208
2017-08-10T23:26:23.123Z,101199
2017-08-10T23:28:51.238Z,101202
2017-08-10T23:31:19.320Z,101210
2017-08-10T23:33:50.358Z,101197
2017-08-10T23:36:22.142Z,101199
2017-08-10T23:38:50.247Z,101200
2017-08-10T23:41:21.483Z,101197
2017-08-10T23:43:49.642Z,101195
2017-08-10T23:46:18.670Z,101198
2017-08-10T23:48:54.511Z,101195
2017-08-10T23:51:22.601Z,101196
2017-08-10T23:53:50.692Z,101193
2017-08-10T23:56:18.791Z,101204
2017-08-10T23:58:46.957Z,101203
